Time;durP1;ratioP1;P1;durP2;ratioP2;P2;SDS_P1;SDS_P2;PMS_P1;PMS_P2;Temp;Humidity;BMP_temperature;BMP_pressure;BME280_temperature;BME280_humidity;BME280_pressure;Samples;Min_cycle;Max_cycle;Signal;HPM_P1;HPM_P2
2023/12/07 00:02:04;;;;;;;1.60;0.93;;;5.20;99.90;;;;;;5010907;28;20085;-75
2023/12/07 00:04:31;;;;;;;1.40;1.00;;;5.20;99.90;;;;;;4999547;28;20054;-74
2023/12/07 00:06:58;;;;;;;1.73;1.10;;;5.20;99.90;;;;;;5005550;28;20284;-74
2023/12/07 00:09:25;;;;;;;1.63;1.10;;;5.30;99.90;;;;;;4964976;28;20046;-75
2023/12/07 00:11:52;;;;;;;1.45;1.00;;;5.40;99.90;;;;;;5000541;28;20100;-78
2023/12/07 00:14:19;;;;;;;1.95;1.17;;;5.40;20.90;;;;;;4999010;28;20115;-78
2023/12/07 00:16:45;;;;;;;2.17;1.33;;;5.50;1.00;;;;;;5012873;28;20089;-75
2023/12/07 00:19:13;;;;;;;1.45;0.95;;;5.60;99.90;;;;;;4983523;28;20045;-75
2023/12/07 00:21:40;;;;;;;1.60;1.02;;;5.60;99.90;;;;;;4967245;28;20499;-75
2023/12/07 00:24:07;;;;;;;1.50;1.10;;;5.60;99.90;;;;;;4982692;28;20141;-75
2023/12/07 00:26:34;;;;;;;2.25;1.00;;;5.70;99.90;;;;;;4995892;28;20046;-74
2023/12/07 00:29:00;;;;;;;2.97;1.23;;;5.70;99.90;;;;;;5016521;28;20046;-74
2023/12/07 00:31:28;;;;;;;1.00;0.80;;;5.80;91.10;;;;;;5010878;28;20076;-76
2023/12/07 00:33:55;;;;;;;1.20;0.95;;;5.80;18.80;;;;;;4978288;28;20097;-77
2023/12/07 00:36:22;;;;;;;1.77;1.13;;;5.80;1.00;;;;;;4964972;28;20081;-75
2023/12/07 00:38:50;;;;;;;1.65;1.23;;;5.80;1.00;;;;;;4999546;28;20108;-75
2023/12/07 00:41:17;;;;;;;2.10;1.25;;;5.90;1.00;;;;;;4981667;28;20129;-75
2023/12/07 00:43:44;;;;;;;2.67;1.38;;;5.90;1.00;;;;;;4981389;28;20045;-75
2023/12/07 00:46:11;;;;;;;2.00;1.27;;;5.90;1.00;;;;;;4976871;28;20046;-75
2023/12/07 00:48:38;;;;;;;2.25;1.20;;;5.90;1.00;;;;;;4941472;28;20046;-74
2023/12/07 00:51:06;;;;;;;1.58;0.95;;;6.00;1.00;;;;;;4971604;28;20119;-74
2023/12/07 00:53:33;;;;;;;1.42;0.90;;;6.00;1.00;;;;;;4982756;28;20054;-74
2023/12/07 00:56:00;;;;;;;2.38;1.20;;;6.00;1.00;;;;;;4984274;28;20062;-74
2023/12/07 00:58:27;;;;;;;1.92;1.00;;;6.10;1.00;;;;;;4981665;28;20562;-74
2023/12/07 01:00:54;;;;;;;2.22;1.40;;;6.10;1.00;;;;;;4966768;28;20140;-77
2023/12/07 01:03:21;;;;;;;2.35;1.25;;;6.10;1.00;;;;;;4966292;28;20060;-75
2023/12/07 01:05:48;;;;;;;1.58;1.20;;;6.10;1.00;;;;;;4950155;28;20140;-74
2023/12/07 01:08:15;;;;;;;1.58;1.13;;;6.10;1.00;;;;;;4953064;28;20143;-75
2023/12/07 01:10:42;;;;;;;1.98;1.30;;;6.10;1.00;;;;;;4981600;28;20422;-74
2023/12/07 01:13:08;;;;;;;1.98;1.20;;;6.10;1.00;;;;;;5003914;28;20163;-74
2023/12/07 01:15:35;;;;;;;2.78;1.40;;;6.10;1.00;;;;;;4956847;28;20089;-75
2023/12/07 01:18:03;;;;;;;3.70;1.23;;;6.20;1.00;;;;;;4966176;28;20057;-75
2023/12/07 01:20:30;;;;;;;2.42;1.52;;;6.20;1.00;;;;;;4966147;28;20046;-74
2023/12/07 01:22:56;;;;;;;2.03;1.40;;;6.20;1.00;;;;;;4999500;28;20054;-75
2023/12/07 01:25:24;;;;;;;2.08;1.48;;;6.20;1.00;;;;;;4981767;28;20062;-74
2023/12/07 01:27:51;;;;;;;3.15;1.55;;;6.20;1.00;;;;;;4980571;28;20062;-74
2023/12/07 01:30:18;;;;;;;2.50;1.20;;;6.20;1.00;;;;;;5014844;28;20046;-75
2023/12/07 01:32:45;;;;;;;2.33;1.42;;;6.20;1.00;;;;;;4982175;28;20054;-75
2023/12/07 01:35:12;;;;;;;2.25;1.45;;;6.20;1.00;;;;;;4983661;28;20054;-75
2023/12/07 01:37:39;;;;;;;2.55;1.73;;;6.20;1.00;;;;;;5008178;28;20402;-76
2023/12/07 01:40:10;;;;;;;2.15;1.80;;;6.20;1.00;;;;;;4980948;28;20407;-76
2023/12/07 01:42:38;;;;;;;2.75;1.60;;;6.20;1.00;;;;;;4980858;28;20750;-77
2023/12/07 01:45:06;;;;;;;2.42;1.55;;;6.20;1.00;;;;;;4964604;28;20046;-77
2023/12/07 01:47:34;;;;;;;2.20;1.40;;;6.20;1.00;;;;;;4997938;28;20438;-77
2023/12/07 01:50:04;;;;;;;1.67;1.33;;;6.20;1.00;;;;;;5005630;28;20050;-77
2023/12/07 01:52:33;;;;;;;2.50;1.83;;;6.20;1.00;;;;;;4966010;28;20163;-77
2023/12/07 01:55:00;;;;;;;1.58;1.42;;;6.20;1.00;;;;;;4949045;28;20137;-77
2023/12/07 01:57:26;;;;;;;1.98;1.20;;;6.20;1.00;;;;;;4979129;28;20546;-77
2023/12/07 01:59:53;;;;;;;6.47;1.73;;;6.20;1.00;;;;;;4981098;28;20050;-77
2023/12/07 02:02:20;;;;;;;2.75;1.50;;;6.20;1.00;;;;;;4966118;28;20054;-77
2023/12/07 02:04:48;;;;;;;1.60;1.08;;;6.20;1.00;;;;;;4999096;28;20053;-74
2023/12/07 02:07:16;;;;;;;2.13;1.17;;;6.30;1.00;;;;;;4967534;28;20591;-77
2023/12/07 02:09:43;;;;;;;1.67;1.30;;;6.20;1.00;;;;;;4980723;28;20049;-74
2023/12/07 02:12:10;;;;;;;1.73;1.08;;;6.30;1.00;;;;;;4965290;28;20050;-76
2023/12/07 02:14:37;;;;;;;2.30;1.27;;;6.30;1.00;;;;;;4965434;28;20054;-77
2023/12/07 02:17:26;;;;;;;2.25;1.35;;;6.30;1.00;;;;;;4981733;28;20104;-77
2023/12/07 02:20:39;;;;;;;3.08;1.30;;;6.30;1.00;;;;;;4999046;28;20053;-77
2023/12/07 02:23:07;;;;;;;1.93;1.33;;;6.30;1.00;;;;;;4997759;28;20065;-77
2023/12/07 02:25:53;;;;;;;1.38;0.88;;;6.30;1.00;;;;;;4963427;28;20053;-77
2023/12/07 02:28:20;;;;;;;1.80;1.30;;;6.30;1.00;;;;;;4953964;28;20054;-77
2023/12/07 02:30:47;;;;;;;2.55;1.48;;;6.30;1.00;;;;;;4959761;28;20061;-77
2023/12/07 02:33:15;;;;;;;1.85;1.40;;;6.30;1.00;;;;;;4978215;28;20062;-77
2023/12/07 02:35:42;;;;;;;4.60;1.67;;;6.30;1.00;;;;;;4969470;28;20598;-77
2023/12/07 02:38:09;;;;;;;1.95;1.25;;;6.30;1.00;;;;;;4973223;28;20707;-76
2023/12/07 02:40:36;;;;;;;2.05;1.38;;;6.30;1.00;;;;;;4990261;28;20049;-76
2023/12/07 02:43:03;;;;;;;1.70;1.20;;;6.30;1.00;;;;;;4999110;28;20563;-76
2023/12/07 02:45:30;;;;;;;1.50;1.15;;;6.30;1.00;;;;;;4948504;28;20312;-77
2023/12/07 02:47:58;;;;;;;2.47;1.13;;;6.30;1.00;;;;;;4988125;28;20057;-76
2023/12/07 02:50:25;;;;;;;1.42;0.90;;;6.30;1.00;;;;;;4964770;28;20521;-76
2023/12/07 02:52:52;;;;;;;1.50;1.08;;;6.30;1.00;;;;;;4967206;28;20066;-76
2023/12/07 02:55:19;;;;;;;1.92;1.08;;;6.30;1.00;;;;;;4943788;28;20130;-76
2023/12/07 02:57:46;;;;;;;3.00;1.10;;;6.40;1.00;;;;;;4971452;28;20068;-77
2023/12/07 03:00:14;;;;;;;1.85;0.98;;;6.40;1.00;;;;;;4973911;28;20143;-77
2023/12/07 03:02:41;;;;;;;1.85;1.25;;;6.40;1.00;;;;;;4961553;28;20054;-76
2023/12/07 03:05:08;;;;;;;1.98;1.13;;;6.40;1.00;;;;;;4992102;28;20054;-77
2023/12/07 03:07:35;;;;;;;1.70;1.20;;;6.40;1.00;;;;;;4991205;28;20050;-76
2023/12/07 03:10:02;;;;;;;2.72;1.40;;;6.40;1.00;;;;;;4990569;28;20100;-76
2023/12/07 03:12:30;;;;;;;1.55;1.10;;;6.30;6.60;;;;;;4977981;28;20136;-76
2023/12/07 03:14:57;;;;;;;2.25;1.23;;;6.40;25.70;;;;;;4957715;28;20050;-76
2023/12/07 03:17:24;;;;;;;1.92;1.10;;;6.40;27.90;;;;;;4975794;28;20527;-76
2023/12/07 03:19:51;;;;;;;1.83;0.93;;;6.40;40.00;;;;;;4975337;28;20483;-76
2023/12/07 03:22:18;;;;;;;0.77;0.70;;;6.40;44.10;;;;;;4991280;28;20112;-77
2023/12/07 03:24:50;;;;;;;1.88;1.00;;;6.40;61.50;;;;;;4990620;28;20053;-77
2023/12/07 03:27:17;;;;;;;1.23;0.93;;;6.40;64.80;;;;;;4958143;28;20060;-76
2023/12/07 03:29:44;;;;;;;1.52;0.95;;;6.40;79.00;;;;;;4990752;28;20058;-76
2023/12/07 03:32:11;;;;;;;2.15;1.20;;;6.40;94.60;;;;;;4975082;28;20467;-76
2023/12/07 03:34:38;;;;;;;2.20;1.52;;;6.40;93.10;;;;;;4970891;28;20053;-76
2023/12/07 03:37:05;;;;;;;1.95;1.15;;;6.40;99.90;;;;;;4974659;28;20092;-77
2023/12/07 03:39:33;;;;;;;2.25;0.95;;;6.50;99.90;;;;;;4990140;28;20057;-76
2023/12/07 03:42:00;;;;;;;1.70;1.02;;;6.50;99.90;;;;;;5007171;28;20487;-76
2023/12/07 03:44:27;;;;;;;2.58;0.82;;;6.50;99.90;;;;;;4975978;28;20050;-76
2023/12/07 03:46:54;;;;;;;2.00;1.15;;;6.50;99.90;;;;;;4971934;28;20068;-76
2023/12/07 03:49:21;;;;;;;1.40;0.85;;;6.60;99.90;;;;;;4974233;28;20073;-77
2023/12/07 03:51:48;;;;;;;1.67;0.90;;;6.60;99.90;;;;;;5020923;28;20045;-76
2023/12/07 03:54:15;;;;;;;1.15;0.95;;;6.50;99.90;;;;;;5003482;28;20064;-76
2023/12/07 03:56:42;;;;;;;1.63;1.23;;;6.60;99.90;;;;;;5022329;28;20161;-77
2023/12/07 03:59:09;;;;;;;2.25;1.10;;;6.50;99.90;;;;;;4992170;28;20109;-77
2023/12/07 04:01:36;;;;;;;1.50;0.82;;;6.50;99.90;;;;;;4983803;28;20084;-77
2023/12/07 04:04:04;;;;;;;1.65;0.95;;;6.60;99.90;;;;;;5005424;28;20102;-76
2023/12/07 04:06:32;;;;;;;1.00;0.80;;;6.60;99.90;;;;;;5006834;28;20487;-76
2023/12/07 04:08:58;;;;;;;1.40;0.98;;;6.60;99.90;;;;;;4989782;28;20139;-76
2023/12/07 04:11:25;;;;;;;2.15;1.33;;;6.60;99.90;;;;;;5005108;28;20458;-76
2023/12/07 04:13:52;;;;;;;2.28;1.17;;;6.60;1.00;;;;;;4998099;28;20427;-77
2023/12/07 04:16:19;;;;;;;1.05;0.70;;;6.50;1.00;;;;;;4989578;28;20046;-77
2023/12/07 04:18:46;;;;;;;1.55;1.00;;;6.50;1.00;;;;;;4989540;28;20065;-76
2023/12/07 04:21:13;;;;;;;1.25;0.85;;;6.50;1.00;;;;;;5006316;28;20399;-77
2023/12/07 04:23:40;;;;;;;1.52;0.95;;;6.50;74.70;;;;;;5005998;28;20502;-77
2023/12/07 04:26:07;;;;;;;1.77;1.02;;;6.50;99.90;;;;;;4973525;28;20106;-77
2023/12/07 04:28:34;;;;;;;1.48;0.82;;;6.50;99.90;;;;;;5020243;28;20050;-76
2023/12/07 04:31:02;;;;;;;1.42;1.08;;;6.50;99.90;;;;;;5006921;28;20792;-76
2023/12/07 04:33:29;;;;;;;3.00;1.23;;;6.50;99.90;;;;;;5006929;28;20080;-77
2023/12/07 04:35:56;;;;;;;1.88;1.13;;;6.50;99.90;;;;;;5007269;28;20455;-77
2023/12/07 04:38:23;;;;;;;2.03;1.00;;;6.50;99.90;;;;;;4971917;28;20058;-76
2023/12/07 04:40:50;;;;;;;1.05;0.93;;;6.60;99.90;;;;;;5021246;28;20041;-77
2023/12/07 04:43:17;;;;;;;1.80;1.10;;;6.60;99.90;;;;;;4988027;28;20046;-77
2023/12/07 04:45:44;;;;;;;2.90;1.00;;;6.60;99.90;;;;;;4972934;28;20053;-77
2023/12/07 04:48:11;;;;;;;1.42;0.90;;;6.60;99.90;;;;;;5022552;28;20104;-76
2023/12/07 04:50:38;;;;;;;1.38;1.20;;;6.60;99.90;;;;;;4989891;28;20042;-76
2023/12/07 04:53:05;;;;;;;2.08;0.90;;;6.60;99.90;;;;;;4975100;28;20050;-76
2023/12/07 04:55:32;;;;;;;1.42;1.00;;;6.60;99.90;;;;;;5006409;28;20426;-76
2023/12/07 04:57:59;;;;;;;1.75;1.27;;;6.60;99.90;;;;;;4989182;28;20114;-77
2023/12/07 05:00:27;;;;;;;1.60;0.90;;;6.60;99.90;;;;;;5004940;28;20054;-76
2023/12/07 05:02:54;;;;;;;1.38;0.93;;;6.70;99.90;;;;;;5003476;28;20054;-76
2023/12/07 05:05:22;;;;;;;1.65;1.17;;;6.70;1.00;;;;;;4989325;28;20129;-77
2023/12/07 05:07:49;;;;;;;1.10;1.00;;;6.60;1.00;;;;;;5006831;28;20053;-76
2023/12/07 05:10:16;;;;;;;1.80;1.13;;;6.70;94.40;;;;;;4988670;28;20046;-76
2023/12/07 05:12:43;;;;;;;2.17;1.98;;;6.70;99.90;;;;;;4988378;28;20053;-77
2023/12/07 05:15:10;;;;;;;1.50;1.08;;;6.70;99.90;;;;;;4971807;28;20483;-76
2023/12/07 05:17:36;;;;;;;1.92;1.00;;;6.70;1.00;;;;;;4989120;28;20112;-77
2023/12/07 05:20:07;;;;;;;1.42;0.90;;;6.70;20.70;;;;;;5006918;28;20050;-77
2023/12/07 05:22:34;;;;;;;1.55;1.10;;;6.70;99.90;;;;;;4989705;28;20060;-75
2023/12/07 05:25:01;;;;;;;1.85;1.38;;;6.70;99.90;;;;;;5005730;28;20054;-75
2023/12/07 05:27:28;;;;;;;2.67;1.20;;;6.70;1.00;;;;;;5006484;28;20042;-75
2023/12/07 05:29:54;;;;;;;1.25;0.90;;;6.70;99.90;;;;;;5006207;28;20112;-75
2023/12/07 05:32:22;;;;;;;2.15;1.40;;;6.70;99.90;;;;;;4989548;28;20065;-76
2023/12/07 05:34:50;;;;;;;2.45;1.30;;;6.70;1.00;;;;;;5006061;28;20227;-75
2023/12/07 05:37:17;;;;;;;2.20;1.17;;;6.70;1.00;;;;;;5005804;28;20061;-75
2023/12/07 05:39:44;;;;;;;2.13;1.20;;;6.70;82.10;;;;;;4988427;28;20069;-75
2023/12/07 05:42:11;;;;;;;2.28;1.05;;;6.70;99.90;;;;;;4987544;28;20046;-75
2023/12/07 05:44:38;;;;;;;2.50;1.40;;;6.70;99.90;;;;;;5004845;28;20056;-76
2023/12/07 05:47:07;;;;;;;3.63;2.13;;;6.80;99.90;;;;;;4988679;28;20049;-75
2023/12/07 05:49:34;;;;;;;2.15;1.40;;;6.70;99.90;;;;;;5004033;28;20053;-76
2023/12/07 05:52:02;;;;;;;2.28;1.63;;;6.80;1.00;;;;;;4990239;28;20056;-76
2023/12/07 05:54:29;;;;;;;2.10;1.30;;;6.70;1.00;;;;;;5010798;28;20077;-75
2023/12/07 05:56:56;;;;;;;1.77;1.52;;;6.80;1.00;;;;;;5002593;28;20503;-75
2023/12/07 05:59:23;;;;;;;1.95;1.48;;;6.80;1.00;;;;;;4985289;28;20081;-76
2023/12/07 06:01:53;;;;;;;2.25;1.70;;;6.80;95.60;;;;;;5004699;28;20057;-76
2023/12/07 06:04:20;;;;;;;3.53;1.77;;;6.80;43.00;;;;;;4982924;28;20132;-75
2023/12/07 06:06:47;;;;;;;3.25;1.67;;;6.80;1.00;;;;;;5000987;28;20610;-75
2023/12/07 06:09:14;;;;;;;1.98;1.42;;;6.90;1.00;;;;;;4968560;28;20061;-75
2023/12/07 06:11:41;;;;;;;2.63;1.90;;;6.90;1.00;;;;;;4984241;28;20242;-75
2023/12/07 06:14:08;;;;;;;3.75;2.35;;;6.90;99.90;;;;;;4983911;28;20045;-75
2023/12/07 06:16:35;;;;;;;3.22;2.40;;;6.90;33.90;;;;;;5004685;28;20046;-75
2023/12/07 06:19:02;;;;;;;3.47;2.33;;;6.90;99.90;;;;;;4999519;28;20486;-75
2023/12/07 06:21:31;;;;;;;2.55;1.75;;;6.80;1.00;;;;;;4999293;28;20092;-74
2023/12/07 06:23:58;;;;;;;2.85;2.22;;;6.90;19.10;;;;;;4951073;28;20049;-74
2023/12/07 06:26:26;;;;;;;3.70;2.20;;;6.80;1.00;;;;;;4947967;28;20629;-76
2023/12/07 06:28:54;;;;;;;3.33;1.92;;;6.80;99.90;;;;;;4977773;28;20058;-77
2023/12/07 06:31:22;;;;;;;2.30;1.60;;;6.80;98.60;;;;;;4965560;28;20037;-76
2023/12/07 06:33:49;;;;;;;2.42;1.60;;;6.80;99.90;;;;;;5000702;28;20049;-74
2023/12/07 06:36:21;;;;;;;2.28;1.70;;;6.80;99.90;;;;;;4952967;28;20060;-76
2023/12/07 06:38:48;;;;;;;2.15;1.92;;;6.80;18.20;;;;;;4961234;28;20050;-75
2023/12/07 06:41:16;;;;;;;2.65;1.73;;;6.80;65.70;;;;;;4963087;28;20057;-75
2023/12/07 06:43:44;;;;;;;3.03;2.05;;;6.90;99.90;;;;;;4960619;28;20057;-75
2023/12/07 06:46:12;;;;;;;2.55;2.08;;;6.80;96.90;;;;;;4979773;28;20046;-75
2023/12/07 06:48:40;;;;;;;2.92;2.08;;;6.90;4.10;;;;;;4947712;28;20626;-75
2023/12/07 06:51:07;;;;;;;2.85;2.28;;;6.80;1.00;;;;;;4948798;28;20043;-75
2023/12/07 06:53:34;;;;;;;2.90;2.10;;;6.80;1.00;;;;;;4980697;28;20052;-75
2023/12/07 06:56:01;;;;;;;3.05;2.08;;;6.90;1.00;;;;;;4979295;28;20045;-74
2023/12/07 06:58:28;;;;;;;2.60;1.95;;;6.80;99.90;;;;;;4979227;28;20597;-75
2023/12/07 07:00:55;;;;;;;4.32;2.40;;;6.90;99.90;;;;;;4982643;28;20064;-76
2023/12/07 07:03:23;;;;;;;3.60;2.50;;;6.90;99.90;;;;;;4987305;28;20467;-89
2023/12/07 07:05:50;;;;;;;3.60;2.17;;;6.90;99.90;;;;;;4980099;28;20113;-75
2023/12/07 07:08:17;;;;;;;3.40;1.95;;;6.90;99.90;;;;;;4979398;28;20058;-75
2023/12/07 07:10:46;;;;;;;5.18;2.95;;;6.90;46.10;;;;;;4980487;28;20062;-76
2023/12/07 07:13:17;;;;;;;3.05;2.58;;;6.90;99.90;;;;;;4978911;28;20057;-75
2023/12/07 07:15:45;;;;;;;3.67;2.42;;;6.90;99.90;;;;;;4963554;28;20049;-75
2023/12/07 07:18:12;;;;;;;3.72;2.50;;;6.90;99.90;;;;;;4980149;28;20058;-74
2023/12/07 07:20:39;;;;;;;5.85;2.83;;;6.90;99.90;;;;;;4946456;28;20054;-75
2023/12/07 07:23:08;;;;;;;4.22;2.30;;;6.90;99.90;;;;;;4979261;28;20707;-75
2023/12/07 07:25:35;;;;;;;3.15;2.10;;;6.90;93.80;;;;;;4975338;28;20065;-75
2023/12/07 07:28:03;;;;;;;2.50;1.92;;;7.00;1.00;;;;;;4978886;28;20122;-75
2023/12/07 07:30:30;;;;;;;3.08;1.90;;;7.00;1.00;;;;;;4960881;28;20050;-75
2023/12/07 07:32:57;;;;;;;3.58;2.03;;;7.00;1.00;;;;;;4978264;28;21003;-75
2023/12/07 07:35:24;;;;;;;2.78;1.98;;;7.00;1.00;;;;;;4962554;28;20142;-75
2023/12/07 07:37:51;;;;;;;3.05;2.28;;;7.00;1.00;;;;;;4979831;28;20046;-75
2023/12/07 07:40:18;;;;;;;3.45;2.25;;;7.00;99.90;;;;;;4979863;28;20456;-75
2023/12/07 07:42:45;;;;;;;2.53;1.92;;;7.00;99.90;;;;;;4948668;28;20419;-75
2023/12/07 07:45:12;;;;;;;3.35;2.22;;;7.00;99.90;;;;;;4997485;28;20446;-74
2023/12/07 07:47:39;;;;;;;2.65;1.85;;;7.00;99.90;;;;;;4998565;28;20692;-74
2023/12/07 07:50:06;;;;;;;2.97;1.83;;;7.00;99.90;;;;;;4980512;28;20577;-73
2023/12/07 07:52:34;;;;;;;2.42;2.00;;;7.00;99.90;;;;;;4980204;28;20045;-74
2023/12/07 07:55:04;;;;;;;2.70;1.98;;;7.00;99.90;;;;;;4965075;28;20096;-74
2023/12/07 07:57:31;;;;;;;2.63;1.67;;;7.00;67.80;;;;;;4998101;28;20559;-74
2023/12/07 08:00:01;;;;;;;5.03;2.00;;;7.00;53.00;;;;;;4946008;28;20085;-74
2023/12/07 08:02:28;;;;;;;2.03;1.75;;;7.00;1.00;;;;;;4971076;28;20045;-75
2023/12/07 08:04:56;;;;;;;2.88;2.15;;;7.00;1.00;;;;;;4979399;28;20042;-75
2023/12/07 08:07:22;;;;;;;4.03;2.08;;;7.00;1.00;;;;;;4979193;28;20049;-75
2023/12/07 08:09:50;;;;;;;2.20;1.60;;;7.00;1.00;;;;;;4978784;28;20910;-74
2023/12/07 08:12:17;;;;;;;3.25;2.08;;;7.00;1.00;;;;;;4995992;28;20054;-75
2023/12/07 08:14:45;;;;;;;4.78;2.10;;;7.00;1.00;;;;;;4947964;28;20104;-75
2023/12/07 08:17:12;;;;;;;3.70;2.08;;;7.00;1.00;;;;;;4979109;28;20061;-74
2023/12/07 08:19:41;;;;;;;2.63;1.70;;;7.00;99.90;;;;;;4979196;28;20112;-74
2023/12/07 08:22:08;;;;;;;3.70;1.85;;;7.10;99.90;;;;;;4980146;28;20049;-75
2023/12/07 08:24:35;;;;;;;2.90;1.85;;;7.10;99.90;;;;;;4963153;28;20058;-74
2023/12/07 08:27:03;;;;;;;2.92;2.08;;;7.10;99.90;;;;;;4963525;28;20995;-75
2023/12/07 08:29:32;;;;;;;2.13;1.70;;;7.10;99.90;;;;;;4965003;28;20518;-75
2023/12/07 08:31:58;;;;;;;3.30;1.95;;;7.20;77.00;;;;;;4965768;28;20120;-75
2023/12/07 08:34:26;;;;;;;3.33;2.00;;;7.20;37.40;;;;;;4963831;28;20692;-75
2023/12/07 08:36:54;;;;;;;3.47;2.03;;;7.20;1.00;;;;;;4963623;28;20054;-75
2023/12/07 08:39:21;;;;;;;3.47;1.50;;;7.20;1.00;;;;;;4963481;28;20057;-75
2023/12/07 08:41:48;;;;;;;3.42;2.35;;;7.20;1.00;;;;;;4979300;28;20136;-75
2023/12/07 08:44:15;;;;;;;2.67;2.00;;;7.30;99.90;;;;;;4963027;28;20058;-75
2023/12/07 08:46:44;;;;;;;3.05;2.33;;;7.30;99.90;;;;;;4959566;28;20077;-75
2023/12/07 08:49:12;;;;;;;4.72;1.98;;;7.30;99.90;;;;;;4977611;28;20656;-75
2023/12/07 08:51:39;;;;;;;1.92;1.45;;;7.30;99.90;;;;;;4963306;28;20042;-74
2023/12/07 08:54:26;;;;;;;4.47;2.00;;;7.30;99.90;;;;;;4981636;28;20049;-75
2023/12/07 08:56:53;;;;;;;3.38;1.60;;;7.30;99.90;;;;;;4978962;28;20053;-75
2023/12/07 08:59:20;;;;;;;2.28;1.63;;;7.30;99.90;;;;;;4978582;28;20054;-75
2023/12/07 09:01:48;;;;;;;2.42;1.70;;;7.40;99.90;;;;;;4979307;28;20046;-75
2023/12/07 09:04:15;;;;;;;3.45;1.98;;;7.40;99.90;;;;;;4996970;28;20177;-75
2023/12/07 09:06:42;;;;;;;2.63;1.33;;;7.40;99.90;;;;;;4994958;28;20053;-75
2023/12/07 09:09:11;;;;;;;2.22;1.42;;;7.40;99.90;;;;;;4996483;28;20513;-75
2023/12/07 09:11:39;;;;;;;2.75;1.80;;;7.40;99.90;;;;;;4947255;28;20081;-75
2023/12/07 09:14:06;;;;;;;2.67;1.52;;;7.50;94.30;;;;;;4962056;28;20061;-75
2023/12/07 09:16:33;;;;;;;3.00;1.67;;;7.50;52.30;;;;;;4978436;28;20100;-75
2023/12/07 09:19:00;;;;;;;2.92;1.85;;;7.50;26.20;;;;;;4996825;28;20053;-74
2023/12/07 09:21:27;;;;;;;3.70;1.65;;;7.60;31.70;;;;;;4997063;28;20042;-74
2023/12/07 09:23:54;;;;;;;2.28;1.40;;;7.60;1.00;;;;;;4996030;28;20545;-75
2023/12/07 09:26:21;;;;;;;2.40;1.60;;;7.60;1.00;;;;;;4996765;28;20054;-75
2023/12/07 09:28:48;;;;;;;2.85;1.40;;;7.60;1.00;;;;;;4996044;28;20054;-75
2023/12/07 09:31:16;;;;;;;1.65;1.23;;;7.70;1.00;;;;;;4995297;28;20228;-75
2023/12/07 09:33:43;;;;;;;1.98;1.20;;;7.70;1.00;;;;;;4961845;28;20125;-74
2023/12/07 09:36:11;;;;;;;1.70;1.10;;;7.80;1.00;;;;;;4977137;28;20411;-75
2023/12/07 09:38:38;;;;;;;3.40;1.60;;;7.80;1.00;;;;;;4968677;28;20059;-75
2023/12/07 09:41:05;;;;;;;2.53;1.83;;;7.80;1.00;;;;;;4961380;28;20118;-75
2023/12/07 09:43:32;;;;;;;2.45;1.50;;;7.80;1.00;;;;;;4927142;28;20559;-75
2023/12/07 09:45:59;;;;;;;2.45;1.38;;;7.80;1.00;;;;;;4963597;28;20053;-75
2023/12/07 09:48:26;;;;;;;2.50;1.75;;;7.90;1.00;;;;;;4958350;28;20047;-75
2023/12/07 09:50:54;;;;;;;1.67;1.10;;;7.90;1.00;;;;;;4957519;28;20294;-74
2023/12/07 09:53:21;;;;;;;2.60;1.55;;;7.90;1.00;;;;;;4926489;28;20043;-76
2023/12/07 09:55:48;;;;;;;2.40;1.48;;;8.00;99.90;;;;;;4956040;28;20058;-76
2023/12/07 09:58:15;;;;;;;2.20;1.10;;;8.00;99.90;;;;;;4959362;28;20133;-75
2023/12/07 10:00:49;;;;;;;2.50;1.40;;;8.00;99.90;;;;;;4927756;28;20057;-75
2023/12/07 10:03:22;;;;;;;2.85;1.52;;;8.00;99.90;;;;;;4941695;28;20072;-78
2023/12/07 10:05:57;;;;;;;2.35;1.38;;;8.00;99.90;;;;;;4957996;28;20061;-77
2023/12/07 10:08:37;;;;;;;2.55;1.67;;;8.00;99.90;;;;;;4941542;28;20146;-77
2023/12/07 10:11:12;;;;;;;1.90;1.15;;;8.10;99.90;;;;;;4942515;28;20073;-78
2023/12/07 10:13:40;;;;;;;2.22;1.25;;;8.10;99.90;;;;;;4957604;28;20453;-77
2023/12/07 10:16:12;;;;;;;2.65;1.33;;;8.10;99.90;;;;;;4957979;28;20046;-77
2023/12/07 10:18:40;;;;;;;2.00;1.05;;;8.20;99.90;;;;;;4927659;28;20051;-77
2023/12/07 10:21:10;;;;;;;2.08;1.48;;;8.20;99.90;;;;;;4958896;28;20054;-77
2023/12/07 10:23:37;;;;;;;2.03;1.35;;;8.20;99.90;;;;;;4958273;28;20591;-76
2023/12/07 10:26:08;;;;;;;3.75;1.73;;;8.20;99.90;;;;;;4950436;28;20145;-77
2023/12/07 10:28:37;;;;;;;1.92;1.38;;;8.20;99.90;;;;;;4974211;28;20516;-76
2023/12/07 10:31:09;;;;;;;3.17;1.70;;;8.20;99.90;;;;;;4935641;29;20051;-77
2023/12/07 10:33:37;;;;;;;2.20;1.30;;;8.20;99.90;;;;;;4942305;28;20082;-77
2023/12/07 10:36:06;;;;;;;1.90;1.05;;;8.20;99.90;;;;;;4960109;28;20115;-77
2023/12/07 10:38:33;;;;;;;2.50;1.40;;;8.20;99.90;;;;;;4943960;28;20827;-77
2023/12/07 10:41:21;;;;;;;3.00;1.33;;;8.20;99.90;;;;;;4984204;28;20112;-77
2023/12/07 10:43:52;;;;;;;1.83;1.27;;;8.20;99.90;;;;;;4986359;28;20051;-77
2023/12/07 10:46:22;;;;;;;2.42;1.50;;;8.30;99.90;;;;;;4954028;28;20201;-77
2023/12/07 10:48:51;;;;;;;2.05;1.20;;;8.30;99.90;;;;;;4958691;28;20055;-77
2023/12/07 10:51:28;;;;;;;3.10;1.08;;;8.30;99.90;;;;;;4940248;28;20066;-77
2023/12/07 10:53:54;;;;;;;2.10;1.30;;;8.40;99.90;;;;;;4951444;28;20412;-77
2023/12/07 10:56:45;;;;;;;2.50;1.67;;;8.40;99.90;;;;;;4942317;28;20053;-77
2023/12/07 10:59:13;;;;;;;2.55;1.25;;;8.40;99.90;;;;;;4940427;28;20398;-77
2023/12/07 11:01:56;;;;;;;2.47;1.17;;;8.50;99.90;;;;;;4955721;28;20781;-77
2023/12/07 11:04:23;;;;;;;1.80;1.13;;;8.50;99.90;;;;;;4944818;28;20205;-77
2023/12/07 11:06:50;;;;;;;1.73;1.33;;;8.60;99.90;;;;;;4974298;28;20413;-77
2023/12/07 11:09:21;;;;;;;3.22;1.55;;;8.60;99.90;;;;;;4938004;28;20058;-78
2023/12/07 11:11:59;;;;;;;1.75;1.27;;;8.60;99.90;;;;;;4932536;28;20146;-77
2023/12/07 11:14:26;;;;;;;2.50;1.73;;;8.70;99.90;;;;;;4928973;28;20062;-77
2023/12/07 11:16:53;;;;;;;2.50;1.30;;;8.70;99.90;;;;;;4943408;28;20105;-78
2023/12/07 11:19:29;;;;;;;2.85;2.10;;;8.60;99.90;;;;;;4946093;28;20448;-79
2023/12/07 11:22:04;;;;;;;2.67;1.40;;;8.60;99.90;;;;;;4982661;28;20061;-79
2023/12/07 11:24:31;;;;;;;1.67;1.10;;;8.70;99.90;;;;;;4951233;28;20129;-78
2023/12/07 11:26:58;;;;;;;2.75;1.70;;;8.70;99.90;;;;;;4925499;28;20051;-78
2023/12/07 11:29:29;;;;;;;3.20;1.27;;;8.70;99.90;;;;;;4959596;28;20155;-78
2023/12/07 11:31:57;;;;;;;2.40;1.40;;;8.70;99.90;;;;;;4971873;28;20058;-79
2023/12/07 11:34:51;;;;;;;3.00;1.30;;;8.70;99.90;;;;;;4929067;28;20062;-78
2023/12/07 11:37:19;;;;;;;1.73;1.20;;;8.70;99.90;;;;;;4992033;28;20045;-80
2023/12/07 11:39:46;;;;;;;1.35;0.80;;;8.70;99.90;;;;;;4944281;28;20154;-80
2023/12/07 11:42:15;;;;;;;1.67;1.10;;;8.70;99.90;;;;;;4951287;28;20516;-80
2023/12/07 11:44:44;;;;;;;2.25;1.10;;;8.70;99.90;;;;;;4941409;28;20510;-79
2023/12/07 11:47:20;;;;;;;2.20;1.27;;;8.70;99.90;;;;;;4958236;28;20488;-79
2023/12/07 11:49:47;;;;;;;2.25;1.05;;;8.70;99.90;;;;;;4963186;28;20051;-79
2023/12/07 11:52:21;;;;;;;1.38;1.02;;;8.80;99.90;;;;;;4945603;28;20054;-79
2023/12/07 11:54:48;;;;;;;2.40;1.20;;;8.80;99.90;;;;;;4977742;28;20077;-78
2023/12/07 11:57:16;;;;;;;2.38;1.23;;;8.70;99.90;;;;;;4961795;28;20137;-79
2023/12/07 11:59:49;;;;;;;1.20;0.90;;;8.70;99.90;;;;;;4944952;28;20397;-78
2023/12/07 12:02:16;;;;;;;1.40;1.00;;;8.70;99.90;;;;;;4958955;28;20456;-79
2023/12/07 12:04:43;;;;;;;1.88;0.90;;;8.70;99.90;;;;;;4960077;28;20067;-79
2023/12/07 12:07:11;;;;;;;2.85;1.33;;;8.70;99.90;;;;;;4975977;28;20141;-79
2023/12/07 12:09:38;;;;;;;1.88;1.00;;;8.60;99.90;;;;;;4977809;28;20057;-79
2023/12/07 12:12:05;;;;;;;1.38;0.82;;;8.60;99.90;;;;;;4953829;28;20052;-79
2023/12/07 12:14:32;;;;;;;3.03;1.00;;;8.60;99.90;;;;;;4973998;28;20980;-79
2023/12/07 12:16:59;;;;;;;2.22;1.25;;;8.70;99.90;;;;;;4977285;28;20137;-79
2023/12/07 12:19:27;;;;;;;2.08;0.75;;;8.60;99.90;;;;;;4967857;28;20681;-80
2023/12/07 12:22:03;;;;;;;1.20;1.00;;;8.70;99.90;;;;;;4959607;28;20054;-80
2023/12/07 12:24:37;;;;;;;2.17;1.48;;;8.70;99.90;;;;;;4976297;28;21020;-80
2023/12/07 12:27:05;;;;;;;2.42;1.20;;;8.70;99.90;;;;;;4944564;28;20535;-80
2023/12/07 12:29:33;;;;;;;1.92;1.40;;;8.70;99.90;;;;;;4974745;28;20504;-79
2023/12/07 12:32:05;;;;;;;2.60;1.35;;;8.70;99.90;;;;;;4942735;28;20141;-80
2023/12/07 12:34:33;;;;;;;2.97;1.58;;;8.70;99.90;;;;;;4970707;28;20487;-80
2023/12/07 12:37:01;;;;;;;2.97;1.52;;;8.70;99.90;;;;;;4954698;28;20065;-80
2023/12/07 12:39:32;;;;;;;3.45;1.60;;;8.70;99.90;;;;;;4960074;28;20078;-79
2023/12/07 12:42:02;;;;;;;3.83;1.33;;;8.70;99.90;;;;;;4924896;28;20245;-79
2023/12/07 12:44:30;;;;;;;2.30;1.40;;;8.70;99.90;;;;;;4938508;28;20149;-81
2023/12/07 12:47:08;;;;;;;1.70;1.20;;;8.60;99.90;;;;;;4961667;28;20765;-79
2023/12/07 12:49:37;;;;;;;3.55;1.40;;;8.60;99.90;;;;;;4964480;28;20142;-79
2023/12/07 12:52:05;;;;;;;4.45;1.42;;;8.60;99.90;;;;;;4956071;28;20057;-82
2023/12/07 12:54:35;;;;;;;2.20;1.50;;;8.60;99.90;;;;;;4970754;28;20146;-81
2023/12/07 12:57:06;;;;;;;2.17;1.50;;;8.50;99.90;;;;;;4978391;28;20286;-81
2023/12/07 12:59:33;;;;;;;3.47;1.70;;;8.50;99.90;;;;;;4977569;28;20596;-81
2023/12/07 13:02:00;;;;;;;1.98;1.27;;;8.50;99.90;;;;;;4945222;28;20050;-82
2023/12/07 13:04:27;;;;;;;3.10;1.40;;;8.50;99.90;;;;;;4960677;28;20593;-81
2023/12/07 13:06:54;;;;;;;2.55;1.55;;;8.40;99.90;;;;;;4976042;28;20136;-80